Time;durP1;ratioP1;P1;durP2;ratioP2;P2;SDS_P1;SDS_P2;PMS_P1;PMS_P2;Temp;Humidity;BMP_temperature;BMP_pressure;BME280_temperature;BME280_humidity;BME280_pressure;Samples;Min_cycle;Max_cycle;Signal;HPM_P1;HPM_P2
2022/07/29 00:02:24;;;;;;;62.88;59.78;;;;;;;25.58;33.26;101559.41;4882590;29;20156;-69
2022/07/29 00:04:49;;;;;;;62.00;58.60;;;;;;;25.56;33.03;101553.38;4881310;29;20061;-68
2022/07/29 00:07:14;;;;;;;67.00;63.42;;;;;;;25.53;33.52;101543.78;4882554;29;20039;-70
2022/07/29 00:09:40;;;;;;;62.92;60.03;;;;;;;25.51;33.23;101546.06;4883241;29;20098;-70
2022/07/29 00:12:05;;;;;;;63.88;60.78;;;;;;;25.48;33.66;101550.28;4882877;29;20434;-69
2022/07/29 00:14:31;;;;;;;59.22;56.42;;;;;;;25.45;33.17;101542.63;4882023;29;20101;-68
2022/07/29 00:16:56;;;;;;;64.28;61.15;;;;;;;25.42;33.54;101548.78;4882749;29;20116;-68
2022/07/29 00:19:22;;;;;;;62.67;59.67;;;;;;;25.40;33.69;101547.50;4882290;29;20096;-69
2022/07/29 00:21:47;;;;;;;62.95;59.95;;;;;;;25.39;33.36;101549.44;4882146;29;20120;-68
2022/07/29 00:24:12;;;;;;;62.70;59.30;;;;;;;25.36;33.32;101543.75;4882234;29;20386;-69
2022/07/29 00:26:38;;;;;;;61.50;58.60;;;;;;;25.35;33.76;101545.72;4882409;29;20040;-69
2022/07/29 00:29:04;;;;;;;62.78;59.45;;;;;;;25.32;33.90;101540.00;4881809;29;20048;-69
2022/07/29 00:31:29;;;;;;;60.28;57.42;;;;;;;25.30;33.47;101533.97;4882272;29;20033;-69
2022/07/29 00:33:55;;;;;;;64.20;61.17;;;;;;;25.28;33.63;101542.63;4882469;29;20462;-68
2022/07/29 00:36:21;;;;;;;59.70;56.53;;;;;;;25.26;33.99;101533.81;4881959;29;20040;-69
2022/07/29 00:38:51;;;;;;;64.18;60.35;;;;;;;25.24;33.99;101536.09;4881740;29;20037;-68
2022/07/29 00:41:17;;;;;;;61.58;58.58;;;;;;;25.22;34.04;101530.06;4881909;29;20033;-69
2022/07/29 00:43:43;;;;;;;59.55;56.75;;;;;;;25.19;34.00;101526.00;4880799;29;20385;-69
2022/07/29 00:46:09;;;;;;;61.70;58.70;;;;;;;25.18;34.08;101529.09;4881764;29;20032;-69
2022/07/29 00:48:34;;;;;;;61.75;58.72;;;;;;;25.15;33.77;101525.00;4881477;29;20063;-69
2022/07/29 00:51:02;;;;;;;63.50;60.60;;;;;;;25.14;33.84;101528.06;4881983;29;20501;-69
2022/07/29 00:53:29;;;;;;;60.30;57.53;;;;;;;25.13;33.83;101523.69;4881490;29;20033;-69
2022/07/29 00:55:54;;;;;;;60.22;57.00;;;;;;;25.09;34.23;101531.81;4881528;29;20025;-69
2022/07/29 00:58:20;;;;;;;58.95;56.15;;;;;;;25.07;34.04;101523.00;4881877;29;20033;-69
2022/07/29 01:00:45;;;;;;;61.22;58.20;;;;;;;25.05;34.20;101520.59;4881646;29;20033;-69
2022/07/29 01:03:11;;;;;;;60.97;57.88;;;;;;;25.03;34.02;101522.84;4880551;29;20073;-69
2022/07/29 01:05:37;;;;;;;58.83;55.80;;;;;;;25.01;34.25;101525.13;4881519;29;20477;-69
2022/07/29 01:08:02;;;;;;;61.53;58.47;;;;;;;24.99;34.26;101508.03;4881599;29;20355;-69
2022/07/29 01:10:29;;;;;;;57.15;53.97;;;;;;;24.97;34.35;101510.34;4881386;29;20041;-69
2022/07/29 01:12:57;;;;;;;60.67;57.33;;;;;;;24.95;34.51;101509.03;4881501;29;20041;-70
2022/07/29 01:15:24;;;;;;;60.38;57.58;;;;;;;24.93;34.18;101509.34;4881174;29;20029;-69
2022/07/29 01:18:11;;;;;;;58.47;55.75;;;;;;;24.91;34.44;101508.84;4881330;29;20045;-69
2022/07/29 01:20:48;;;;;;;59.30;56.53;;;;;;;24.89;34.25;101502.81;4881575;29;20025;-69
2022/07/29 01:23:28;;;;;;;57.85;55.05;;;;;;;24.87;34.01;101504.28;4881408;29;20485;-69
2022/07/29 01:26:24;;;;;;;58.53;55.78;;;;;;;24.84;34.51;101502.97;4881059;29;20495;-69
2022/07/29 01:29:07;;;;;;;57.28;54.33;;;;;;;24.80;34.14;101491.75;4881111;29;20057;-70
2022/07/29 01:31:44;;;;;;;60.38;57.58;;;;;;;24.78;34.64;101493.22;4881060;29;20493;-69
2022/07/29 01:34:17;;;;;;;60.03;57.17;;;;;;;24.75;34.52;101491.91;4881436;29;20045;-69
2022/07/29 01:36:55;;;;;;;58.35;55.65;;;;;;;24.74;34.28;101481.97;4881224;29;20083;-69
2022/07/29 01:39:29;;;;;;;55.78;53.05;;;;;;;24.71;34.63;101485.38;4881714;29;20092;-68
2022/07/29 01:42:20;;;;;;;57.17;54.38;;;;;;;24.70;34.70;101474.66;4881304;29;20033;-68
2022/07/29 01:44:55;;;;;;;56.65;53.97;;;;;;;24.68;34.35;101476.94;4879327;29;20033;-69
2022/07/29 01:47:25;;;;;;;57.08;54.38;;;;;;;24.66;34.91;101473.66;4880774;29;20160;-68
2022/07/29 01:49:54;;;;;;;59.25;56.40;;;;;;;24.62;34.30;101467.97;4880653;29;20470;-69
2022/07/29 01:53:00;;;;;;;57.67;54.88;;;;;;;24.60;34.75;101473.81;4881163;29;20037;-68
2022/07/29 01:55:30;;;;;;;57.30;54.60;;;;;;;24.58;34.65;101470.56;4880086;29;20494;-69
2022/07/29 01:57:58;;;;;;;55.17;52.47;;;;;;;24.57;34.85;101466.19;4881083;29;20029;-69
2022/07/29 02:00:25;;;;;;;55.25;52.55;;;;;;;24.55;34.68;101473.16;4880457;29;20040;-70
2022/07/29 02:02:52;;;;;;;58.90;55.95;;;;;;;24.53;34.96;101472.66;4879734;29;20458;-68
2022/07/29 02:05:20;;;;;;;56.57;53.83;;;;;;;24.51;34.50;101472.16;4880603;29;20033;-70
2022/07/29 02:07:47;;;;;;;55.28;52.60;;;;;;;24.49;35.00;101472.47;4880658;29;20039;-69
2022/07/29 02:10:15;;;;;;;57.90;55.00;;;;;;;24.48;34.45;101470.84;4880242;29;20366;-69
2022/07/29 02:12:42;;;;;;;55.13;52.33;;;;;;;24.46;35.03;101469.53;4880618;29;20488;-69
2022/07/29 02:15:11;;;;;;;56.88;54.20;;;;;;;24.44;35.08;101475.34;4880380;29;20033;-68
2022/07/29 02:17:43;;;;;;;58.45;55.65;;;;;;;24.41;34.93;101470.47;4880272;29;20033;-68
2022/07/29 02:20:09;;;;;;;55.60;52.90;;;;;;;24.40;35.10;101474.38;4880290;29;20077;-70
2022/07/29 02:22:37;;;;;;;54.05;51.35;;;;;;;24.37;34.55;101473.06;4879846;29;20037;-69
2022/07/29 02:25:04;;;;;;;56.03;53.38;;;;;;;24.36;34.99;101465.88;4879695;29;20398;-69
2022/07/29 02:27:33;;;;;;;56.40;53.75;;;;;;;24.34;35.14;101473.69;4878836;29;20079;-68
2022/07/29 02:30:01;;;;;;;54.78;52.08;;;;;;;24.32;34.78;101466.88;4879767;29;20041;-68
2022/07/29 02:32:28;;;;;;;;;;;;;;;24.31;35.07;101470.75;4880686;29;20033;-69
2022/07/29 02:34:55;;;;;;;55.78;53.17;;;;;;;24.27;34.62;101476.09;4879817;29;19922;-68
2022/07/29 02:37:21;;;;;;;54.75;52.05;;;;;;;24.25;34.75;101472.84;4879909;29;20102;-68
2022/07/29 02:39:48;;;;;;;54.38;51.58;;;;;;;24.24;34.92;101464.84;4879927;29;20033;-69
2022/07/29 02:42:16;;;;;;;56.25;53.55;;;;;;;24.22;35.20;101458.84;4880012;29;20033;-68
2022/07/29 02:44:42;;;;;;;54.58;51.97;;;;;;;24.20;35.25;101456.41;4879850;29;20048;-68
2022/07/29 02:47:19;;;;;;;55.17;52.55;;;;;;;24.17;34.79;101452.34;4879656;29;20029;-69
2022/07/29 02:49:56;;;;;;;53.63;50.92;;;;;;;24.17;34.98;101460.63;4879756;29;20478;-69
2022/07/29 02:52:31;;;;;;;55.13;52.42;;;;;;;24.15;35.25;101471.16;4879909;29;20036;-68
2022/07/29 02:55:01;;;;;;;54.67;51.80;;;;;;;24.12;35.29;101459.94;4879451;29;20064;-69
2022/07/29 02:57:36;;;;;;;54.40;51.47;;;;;;;24.11;35.09;101466.59;4880396;29;20103;-69
2022/07/29 03:00:06;;;;;;;55.00;52.38;;;;;;;24.09;35.16;101455.03;4879957;29;20084;-70
2022/07/29 03:02:42;;;;;;;57.97;54.97;;;;;;;24.07;35.61;101458.13;4879702;29;20033;-69
2022/07/29 03:05:10;;;;;;;55.70;53.00;;;;;;;24.05;35.30;101462.34;4879603;29;20454;-68
2022/07/29 03:07:37;;;;;;;55.97;53.28;;;;;;;24.03;35.57;101462.66;4879812;29;20077;-70
2022/07/29 03:10:03;;;;;;;52.90;50.38;;;;;;;24.02;35.38;101466.56;4879521;29;20037;-67
2022/07/29 03:12:30;;;;;;;56.70;53.97;;;;;;;24.01;35.62;101464.09;4879614;29;20541;-71
2022/07/29 03:14:57;;;;;;;55.05;52.35;;;;;;;24.00;35.64;101459.72;4879518;29;20036;-69
2022/07/29 03:17:23;;;;;;;55.42;52.75;;;;;;;23.97;35.77;101461.97;4879591;29;20052;-69
2022/07/29 03:19:48;;;;;;;54.78;52.17;;;;;;;23.95;35.60;101458.72;4879277;29;20064;-68
2022/07/29 03:22:14;;;;;;;56.50;53.80;;;;;;;23.94;35.35;101467.31;4878594;29;20125;-68
2022/07/29 03:24:40;;;;;;;55.90;52.70;;;;;;;23.93;35.75;101469.25;4879483;29;20029;-68
2022/07/29 03:27:05;;;;;;;55.97;52.83;;;;;;;23.91;35.55;101466.00;4883014;29;20169;-68
2022/07/29 03:29:31;;;;;;;54.47;51.80;;;;;;;23.90;35.40;101474.59;4883606;29;20048;-68
2022/07/29 03:31:57;;;;;;;53.05;50.35;;;;;;;23.88;35.95;101463.06;4883177;29;20108;-69
2022/07/29 03:34:23;;;;;;;54.60;51.90;;;;;;;23.86;35.81;101463.34;4883081;29;20101;-69
2022/07/29 03:36:49;;;;;;;55.13;52.30;;;;;;;23.85;35.94;101455.41;4883050;29;20446;-69
2022/07/29 03:39:20;;;;;;;54.75;52.03;;;;;;;23.83;35.57;101454.91;4882987;29;20060;-68
2022/07/29 03:41:48;;;;;;;54.30;51.60;;;;;;;23.82;35.68;101456.06;4897946;29;20057;-68
2022/07/29 03:44:16;;;;;;;52.97;50.38;;;;;;;23.78;35.57;101450.34;4882863;29;20056;-68
2022/07/29 03:46:44;;;;;;;50.75;48.35;;;;;;;23.77;35.99;101451.47;4882638;29;20029;-68
2022/07/29 03:49:11;;;;;;;53.38;50.47;;;;;;;23.75;36.10;101446.25;4882387;29;20052;-69
2022/07/29 03:51:38;;;;;;;51.60;49.20;;;;;;;23.72;36.02;101441.38;4883145;29;20029;-67
2022/07/29 03:54:04;;;;;;;53.33;50.65;;;;;;;23.70;35.98;101440.84;4882739;29;20040;-67
2022/07/29 03:56:34;;;;;;;53.17;50.67;;;;;;;23.69;36.20;101441.97;4882314;29;20037;-68
2022/07/29 03:59:01;;;;;;;53.50;50.92;;;;;;;23.67;35.89;101444.22;4882605;29;20041;-70
2022/07/29 04:01:27;;;;;;;52.83;50.30;;;;;;;23.65;35.81;101449.25;4882550;29;20037;-68
2022/07/29 04:03:53;;;;;;;57.60;54.90;;;;;;;23.64;35.86;101452.34;4882270;29;20044;-69
2022/07/29 04:06:18;;;;;;;55.47;52.78;;;;;;;23.63;35.94;101450.69;4882253;29;20037;-68
2022/07/29 04:08:44;;;;;;;54.20;51.63;;;;;;;23.60;35.89;101454.88;4882207;29;20466;-70
2022/07/29 04:11:09;;;;;;;58.13;55.33;;;;;;;23.58;35.94;101451.63;4882110;29;20041;-67
2022/07/29 04:13:35;;;;;;;52.72;49.85;;;;;;;23.58;36.08;101456.31;4882461;29;20036;-69
2022/07/29 04:16:00;;;;;;;53.20;50.60;;;;;;;23.55;36.37;101457.78;4882006;29;20538;-69
2022/07/29 04:18:25;;;;;;;53.42;50.83;;;;;;;23.54;36.50;101461.66;4882163;29;20497;-69
2022/07/29 04:20:51;;;;;;;55.45;52.83;;;;;;;23.52;36.55;101464.72;4882284;29;20551;-68
2022/07/29 04:23:16;;;;;;;54.63;51.83;;;;;;;23.50;35.91;101471.69;4896559;29;20093;-68
2022/07/29 04:25:42;;;;;;;56.08;52.95;;;;;;;23.49;36.41;101470.06;4896479;29;20545;-68
2022/07/29 04:28:08;;;;;;;52.50;50.00;;;;;;;23.47;36.16;101467.59;4882094;29;20048;-68
2022/07/29 04:30:35;;;;;;;50.90;48.30;;;;;;;23.44;36.36;101459.97;4881761;29;20044;-68
2022/07/29 04:33:02;;;;;;;51.53;48.90;;;;;;;23.43;36.28;101457.50;4882024;29;20120;-68
2022/07/29 04:35:29;;;;;;;52.33;49.72;;;;;;;23.41;36.48;101457.00;4882321;29;20033;-69
2022/07/29 04:37:54;;;;;;;52.35;49.63;;;;;;;23.39;36.56;101457.34;4880885;29;20029;-69
2022/07/29 04:40:20;;;;;;;52.67;49.75;;;;;;;23.38;36.49;101463.16;4882325;29;20033;-69
2022/07/29 04:42:46;;;;;;;52.70;50.10;;;;;;;23.36;36.65;101462.63;4882106;29;20037;-68
2022/07/29 04:45:12;;;;;;;52.28;49.78;;;;;;;23.33;36.23;101464.06;4881525;29;20037;-68
2022/07/29 04:47:37;;;;;;;51.28;48.78;;;;;;;23.32;36.61;101463.25;4896570;29;20041;-68
2022/07/29 04:50:03;;;;;;;50.30;47.72;;;;;;;23.29;36.46;101466.66;4895655;29;20417;-67
2022/07/29 04:52:28;;;;;;;51.60;48.65;;;;;;;23.27;36.39;101462.56;4896403;29;20052;-67
2022/07/29 04:54:54;;;;;;;53.90;51.25;;;;;;;23.26;36.89;101470.03;4881549;29;20367;-68
2022/07/29 04:57:19;;;;;;;51.15;48.60;;;;;;;23.24;36.54;101461.25;4881740;29;20029;-68
2022/07/29 04:59:44;;;;;;;50.92;48.22;;;;;;;23.22;36.89;101466.25;4881856;29;20137;-67
2022/07/29 05:02:10;;;;;;;49.95;47.38;;;;;;;23.22;36.70;101468.22;4881605;29;20037;-68
2022/07/29 05:04:35;;;;;;;53.38;50.47;;;;;;;23.20;36.96;101470.47;4881141;29;20033;-69
2022/07/29 05:07:00;;;;;;;51.95;49.00;;;;;;;23.17;36.98;101474.66;4881466;29;20464;-68
2022/07/29 05:09:26;;;;;;;50.65;48.05;;;;;;;23.16;36.63;101470.28;4879885;29;20044;-68
2022/07/29 05:11:51;;;;;;;50.05;47.25;;;;;;;23.14;36.70;101472.53;4895674;29;20037;-69
2022/07/29 05:14:16;;;;;;;52.17;49.65;;;;;;;23.13;37.02;101475.56;4881024;29;20033;-68
2022/07/29 05:16:43;;;;;;;50.90;48.30;;;;;;;23.11;36.89;101475.91;4881276;29;20489;-68
2022/07/29 05:19:08;;;;;;;51.40;48.90;;;;;;;23.10;36.97;101482.53;4881150;29;20033;-68
2022/07/29 05:21:34;;;;;;;50.83;48.33;;;;;;;23.09;37.30;101489.16;4881332;29;20055;-69
2022/07/29 05:23:59;;;;;;;50.53;47.88;;;;;;;23.07;36.98;101489.47;4881604;29;20060;-68
2022/07/29 05:26:24;;;;;;;50.03;47.42;;;;;;;23.05;36.85;101485.38;4880814;29;20045;-69
2022/07/29 05:28:50;;;;;;;50.80;48.05;;;;;;;23.03;37.03;101491.22;4881562;29;20365;-69
2022/07/29 05:31:16;;;;;;;54.40;51.72;;;;;;;23.03;37.19;101501.41;4880958;29;20029;-69
2022/07/29 05:33:42;;;;;;;51.38;48.72;;;;;;;23.00;37.43;101502.84;4880865;29;20073;-67
2022/07/29 05:36:07;;;;;;;50.80;48.15;;;;;;;22.99;37.33;101506.72;4880655;29;20037;-70
2022/07/29 05:38:34;;;;;;;51.40;48.80;;;;;;;22.98;37.54;101504.28;4880845;29;20112;-69
2022/07/29 05:41:00;;;;;;;50.72;48.25;;;;;;;22.97;37.33;101519.16;4881035;29;20070;-69
2022/07/29 05:43:26;;;;;;;50.28;47.78;;;;;;;22.95;37.43;101507.63;4880745;29;20037;-67
2022/07/29 05:45:52;;;;;;;51.17;48.50;;;;;;;22.95;37.42;101510.38;4880985;29;20045;-69
2022/07/29 05:48:17;;;;;;;52.05;49.33;;;;;;;22.92;37.28;101511.81;4879185;29;20466;-69
2022/07/29 05:50:43;;;;;;;50.97;48.10;;;;;;;22.92;37.40;101516.50;4879541;29;20061;-70
2022/07/29 05:53:08;;;;;;;50.35;47.92;;;;;;;22.89;37.16;101516.00;4880645;29;20040;-69
2022/07/29 05:55:33;;;;;;;49.53;46.80;;;;;;;22.88;37.32;101519.88;4880281;29;20177;-67
2022/07/29 05:57:59;;;;;;;53.35;50.60;;;;;;;22.87;37.13;101525.69;4880621;29;20502;-68
2022/07/29 06:00:27;;;;;;;53.03;50.33;;;;;;;22.85;37.58;101519.66;4880399;29;20057;-67
2022/07/29 06:02:52;;;;;;;47.78;45.40;;;;;;;22.83;37.20;101514.47;4894765;29;20385;-67
2022/07/29 06:05:18;;;;;;;50.38;47.88;;;;;;;22.82;37.70;101518.34;4880286;29;20041;-67
2022/07/29 06:07:44;;;;;;;51.80;49.08;;;;;;;22.80;37.38;101515.06;4880856;29;20045;-67
2022/07/29 06:10:09;;;;;;;49.38;46.97;;;;;;;22.80;37.80;101514.25;4880419;29;20043;-68
2022/07/29 06:12:34;;;;;;;49.47;47.08;;;;;;;22.78;37.27;101511.00;4880239;29;20037;-71
2022/07/29 06:15:00;;;;;;;50.60;48.00;;;;;;;22.76;37.54;101514.06;4880733;29;20033;-68
2022/07/29 06:17:25;;;;;;;53.55;50.85;;;;;;;22.76;37.56;101516.00;4895268;29;20041;-68
2022/07/29 06:19:51;;;;;;;56.13;53.22;;;;;;;22.77;37.71;101520.38;4879928;29;20041;-68
2022/07/29 06:22:17;;;;;;;49.58;47.08;;;;;;;22.76;37.93;101516.00;4879954;29;20112;-69
2022/07/29 06:24:43;;;;;;;51.95;49.13;;;;;;;22.75;37.78;101517.94;4880052;29;20048;-68
2022/07/29 06:27:12;;;;;;;49.70;47.17;;;;;;;22.76;37.98;101522.31;4880833;29;20041;-69
2022/07/29 06:29:37;;;;;;;;;;;;;;;22.75;37.60;101528.94;4880130;29;20156;-68
2022/07/29 06:32:03;;;;;;;48.67;46.08;;;;;;;22.74;37.97;101524.56;4879961;29;20428;-67
2022/07/29 06:34:29;;;;;;;50.90;47.88;;;;;;;22.73;38.01;101516.59;4879481;29;20063;-68
2022/07/29 06:36:54;;;;;;;49.85;47.40;;;;;;;22.74;37.74;101524.56;4879854;29;20044;-68
2022/07/29 06:39:20;;;;;;;51.80;48.30;;;;;;;22.75;38.29;101522.63;4879838;29;20037;-67
2022/07/29 06:41:50;;;;;;;48.17;45.83;;;;;;;22.75;38.21;101523.44;4879606;29;20033;-68
2022/07/29 06:44:17;;;;;;;48.88;46.28;;;;;;;22.75;37.99;101523.44;4879917;29;20076;-69
2022/07/29 06:46:43;;;;;;;50.83;47.85;;;;;;;22.76;37.76;101524.28;4879694;29;20037;-69
2022/07/29 06:49:08;;;;;;;51.72;49.03;;;;;;;22.77;38.07;101523.94;4879815;29;20059;-71
2022/07/29 06:51:34;;;;;;;52.22;49.47;;;;;;;22.77;38.15;101523.94;4879947;29;20036;-70
2022/07/29 06:54:00;;;;;;;48.95;46.55;;;;;;;22.77;38.06;101528.66;4880033;29;20121;-70
2022/07/29 06:56:26;;;;;;;50.00;47.45;;;;;;;22.77;37.91;101521.19;4879786;29;20110;-71
2022/07/29 06:58:51;;;;;;;50.53;47.72;;;;;;;22.79;38.17;101529.97;4879810;29;20450;-71
2022/07/29 07:01:17;;;;;;;49.85;47.00;;;;;;;22.81;38.73;101533.25;4878860;29;20041;-71
2022/07/29 07:03:42;;;;;;;50.05;47.35;;;;;;;22.81;39.05;101530.50;4879725;29;20069;-71
2022/07/29 07:06:08;;;;;;;49.75;47.15;;;;;;;22.79;39.53;101543.75;4879752;29;20037;-70
2022/07/29 07:08:33;;;;;;;52.70;50.10;;;;;;;22.77;39.82;101532.22;4878509;29;20057;-69
2022/07/29 07:10:59;;;;;;;50.35;47.10;;;;;;;22.76;39.96;101541.59;4879937;29;20037;-69
2022/07/29 07:13:25;;;;;;;52.95;50.03;;;;;;;22.79;39.87;101545.69;4879011;29;20064;-67
2022/07/29 07:15:51;;;;;;;51.13;48.15;;;;;;;22.83;39.72;101542.03;4879047;29;20041;-67
2022/07/29 07:18:18;;;;;;;52.28;49.50;;;;;;;22.86;39.81;101546.91;4880011;29;20071;-72
2022/07/29 07:20:44;;;;;;;51.05;48.35;;;;;;;22.86;39.91;101549.66;4879809;29;20035;-71
2022/07/29 07:23:09;;;;;;;48.78;46.13;;;;;;;22.87;40.52;101556.00;4879609;29;20037;-72
2022/07/29 07:25:35;;;;;;;50.55;48.05;;;;;;;22.88;40.51;101561.19;4879400;29;20041;-69
2022/07/29 07:28:01;;;;;;;52.92;50.10;;;;;;;22.92;40.46;101557.84;4879102;29;20048;-68
2022/07/29 07:30:27;;;;;;;51.58;48.95;;;;;;;22.95;40.42;101558.03;4879354;29;20120;-68
2022/07/29 07:32:52;;;;;;;49.95;46.97;;;;;;;23.00;40.60;101562.66;4879591;29;20168;-69
2022/07/29 07:35:18;;;;;;;50.90;48.40;;;;;;;23.05;40.44;101560.59;4879172;29;20124;-68
2022/07/29 07:37:43;;;;;;;52.20;49.20;;;;;;;23.12;40.47;101560.19;4878607;29;20068;-71
2022/07/29 07:40:13;;;;;;;49.75;47.03;;;;;;;23.18;40.19;101563.66;4879389;29;20044;-69
2022/07/29 07:42:40;;;;;;;51.22;48.22;;;;;;;23.24;40.39;101557.72;4880016;29;20025;-71
2022/07/29 07:45:09;;;;;;;51.53;48.58;;;;;;;23.30;40.30;101548.22;4879315;29;20124;-71
2022/07/29 07:47:35;;;;;;;50.05;47.35;;;;;;;23.36;39.91;101548.09;4879205;29;20036;-70
2022/07/29 07:50:00;;;;;;;52.40;49.75;;;;;;;23.39;40.16;101548.31;4879342;29;20141;-70
2022/07/29 07:52:26;;;;;;;50.20;47.70;;;;;;;23.41;40.12;101539.72;4879286;29;20116;-69
2022/07/29 07:54:51;;;;;;;51.22;48.63;;;;;;;23.42;39.83;101539.41;4879210;29;20159;-70
2022/07/29 07:57:17;;;;;;;49.50;46.80;;;;;;;23.42;40.05;101539.41;4879495;29;20093;-73
2022/07/29 07:59:42;;;;;;;53.53;50.70;;;;;;;23.48;40.34;101537.34;4879272;29;20052;-69
2022/07/29 08:02:09;;;;;;;52.85;50.33;;;;;;;23.53;40.01;101531.72;4878811;29;20045;-68
2022/07/29 08:04:35;;;;;;;53.33;50.47;;;;;;;23.60;40.42;101534.06;4893661;29;20053;-70
2022/07/29 08:07:01;;;;;;;50.95;48.42;;;;;;;23.66;40.06;101528.13;4879251;29;20037;-69
2022/07/29 08:09:29;;;;;;;52.13;49.53;;;;;;;23.74;39.90;101537.63;4878979;29;20097;-71
2022/07/29 08:11:55;;;;;;;54.92;52.17;;;;;;;23.81;39.95;101537.16;4880704;29;20068;-70
2022/07/29 08:14:20;;;;;;;55.35;52.55;;;;;;;23.88;40.24;101535.59;4882317;29;20541;-69
2022/07/29 08:16:46;;;;;;;53.80;51.05;;;;;;;23.94;40.44;101534.34;4882141;29;20099;-69
2022/07/29 08:19:12;;;;;;;55.10;52.17;;;;;;;24.02;39.83;101538.31;4882747;29;20104;-69
2022/07/29 08:21:38;;;;;;;55.10;52.30;;;;;;;24.07;40.07;101535.41;4882595;29;20089;-70
2022/07/29 08:26:48;;;;;;;58.33;55.22;;;;;;;24.24;39.70;101539.41;4882373;29;20545;-70
2022/07/29 08:29:13;;;;;;;53.97;51.35;;;;;;;24.31;39.31;101535.06;4882544;29;20029;-69
2022/07/29 08:31:40;;;;;;;60.00;56.90;;;;;;;24.38;39.36;101540.13;4882202;29;20044;-70
2022/07/29 08:34:05;;;;;;;55.33;52.42;;;;;;;24.45;39.53;101540.53;4882277;29;20335;-71
2022/07/29 08:36:32;;;;;;;57.03;54.10;;;;;;;24.52;39.60;101546.41;4881657;29;20033;-69
2022/07/29 08:38:57;;;;;;;60.55;57.47;;;;;;;24.59;39.15;101549.53;4896433;29;20037;-68
2022/07/29 08:41:23;;;;;;;59.15;56.17;;;;;;;24.68;39.25;101554.28;4882532;29;20052;-68
2022/07/29 08:43:49;;;;;;;59.20;56.05;;;;;;;24.75;39.01;101554.63;4882178;29;20089;-68
2022/07/29 08:46:16;;;;;;;58.78;55.90;;;;;;;24.83;39.29;101551.91;4881637;29;20040;-68
2022/07/29 08:48:43;;;;;;;58.92;56.03;;;;;;;24.91;39.25;101552.25;4881968;29;20074;-68
2022/07/29 08:51:13;;;;;;;59.00;55.65;;;;;;;24.99;38.90;101551.44;4895954;29;20059;-70
2022/07/29 08:53:41;;;;;;;61.50;57.97;;;;;;;25.07;39.27;101558.13;4881650;29;20465;-69
2022/07/29 08:56:10;;;;;;;56.67;53.85;;;;;;;25.16;38.91;101559.00;4881666;29;20123;-73
2022/07/29 08:58:36;;;;;;;60.75;57.85;;;;;;;25.24;38.68;101563.75;4881797;29;20037;-69
2022/07/29 09:01:02;;;;;;;59.63;56.42;;;;;;;25.33;38.87;101558.25;4881673;29;20043;-69
2022/07/29 09:03:32;;;;;;;62.00;58.58;;;;;;;25.39;38.67;101560.50;4881594;29;20068;-70
2022/07/29 09:05:59;;;;;;;62.58;59.67;;;;;;;25.48;38.80;101564.13;4881778;29;20124;-69
2022/07/29 09:08:25;;;;;;;60.05;57.15;;;;;;;25.57;38.58;101566.06;4881358;29;20045;-69
2022/07/29 09:10:51;;;;;;;63.80;60.33;;;;;;;25.66;38.04;101561.34;4881410;29;20037;-69
2022/07/29 09:13:16;;;;;;;61.72;58.42;;;;;;;25.73;37.81;101564.44;4881694;29;20045;-69
2022/07/29 09:15:42;;;;;;;66.30;63.00;;;;;;;25.83;38.28;101564.13;4881760;29;20033;-69
2022/07/29 09:18:07;;;;;;;65.57;62.38;;;;;;;25.91;38.01;101559.75;4880163;29;20036;-69
2022/07/29 09:23:16;;;;;;;60.10;56.90;;;;;;;26.11;37.72;101564.59;4880725;29;20052;-71
2022/07/29 09:25:42;;;;;;;62.60;59.55;;;;;;;26.21;37.52;101560.69;4895564;29;20045;-69
2022/07/29 09:28:16;;;;;;;63.42;60.08;;;;;;;26.29;37.31;101559.84;4895700;29;20036;-74
2022/07/29 09:30:50;;;;;;;64.05;60.80;;;;;;;26.39;37.43;101555.09;4881450;29;20037;-69
2022/07/29 09:33:16;;;;;;;64.88;61.65;;;;;;;26.49;37.24;101560.28;4881236;29;20104;-71
2022/07/29 09:35:43;;;;;;;67.70;64.50;;;;;;;26.58;36.94;101552.75;4880541;29;20105;-69
2022/07/29 09:38:13;;;;;;;63.95;60.75;;;;;;;26.67;36.87;101558.28;4880965;29;20037;-70
2022/07/29 09:40:39;;;;;;;68.30;64.65;;;;;;;26.74;37.13;101551.06;4881388;29;20075;-68
2022/07/29 09:43:12;;;;;;;67.68;64.00;;;;;;;26.85;37.40;101556.25;4880423;29;20434;-70
2022/07/29 09:45:38;;;;;;;69.10;65.47;;;;;;;26.94;36.89;101563.38;4880784;29;20393;-69
2022/07/29 09:48:17;;;;;;;66.82;63.47;;;;;;;27.03;36.79;101557.75;4880911;29;20488;-70
2022/07/29 09:50:46;;;;;;;67.88;64.68;;;;;;;27.13;36.75;101553.81;4880284;29;20104;-69
2022/07/29 09:53:11;;;;;;;67.05;63.75;;;;;;;27.22;36.98;101548.25;4880700;29;20500;-68
2022/07/29 09:55:48;;;;;;;69.57;66.15;;;;;;;27.32;36.59;101545.88;4880479;29;20037;-70
2022/07/29 09:58:22;;;;;;;72.10;68.65;;;;;;;27.41;36.58;101552.16;4880915;29;20458;-69
2022/07/29 10:00:49;;;;;;;71.95;68.55;;;;;;;27.52;35.88;101544.25;4880970;29;20029;-70
2022/07/29 10:03:15;;;;;;;72.50;68.93;;;;;;;27.60;36.33;101548.91;4894877;29;20045;-70
2022/07/29 10:05:41;;;;;;;76.88;73.32;;;;;;;27.69;36.30;101543.28;4880436;29;20069;-69
2022/07/29 10:08:08;;;;;;;76.45;72.50;;;;;;;27.80;36.07;101549.25;4881144;29;20525;-69
2022/07/29 10:10:37;;;;;;;75.45;72.05;;;;;;;27.88;36.24;101544.81;4880371;29;20041;-68
2022/07/29 10:13:07;;;;;;;76.28;72.63;;;;;;;27.96;35.99;101543.91;4880245;29;20043;-69
2022/07/29 10:15:42;;;;;;;76.60;72.15;;;;;;;28.05;35.80;101537.09;4880792;29;20033;-68
2022/07/29 10:18:09;;;;;;;73.20;69.85;;;;;;;28.16;35.58;101536.66;4880826;29;20032;-69
2022/07/29 10:20:35;;;;;;;79.57;75.65;;;;;;;28.25;35.52;101545.72;4880206;29;20041;-70
2022/07/29 10:23:00;;;;;;;75.45;71.53;;;;;;;28.33;35.90;101550.38;4880142;29;20029;-68
2022/07/29 10:25:27;;;;;;;73.47;69.50;;;;;;;28.43;35.01;101546.34;4880133;29;20497;-69
2022/07/29 10:27:54;;;;;;;75.85;72.25;;;;;;;28.53;34.99;101536.78;4880291;29;20138;-68
2022/07/29 10:30:21;;;;;;;81.43;77.72;;;;;;;28.62;34.96;101529.91;4880063;29;20422;-69
2022/07/29 10:32:56;;;;;;;77.20;73.18;;;;;;;28.72;34.64;101541.75;4879965;29;20053;-69
2022/07/29 10:35:33;;;;;;;77.07;72.38;;;;;;;28.81;34.22;101542.47;4878767;29;20557;-69
2022/07/29 10:38:13;;;;;;;75.80;72.28;;;;;;;28.91;31.81;101537.22;4880230;29;20032;-68
2022/07/29 10:43:44;;;;;;;78.88;75.38;;;;;;;29.10;33.16;101541.41;4880028;29;20154;-68
2022/07/29 10:46:11;;;;;;;83.07;79.07;;;;;;;29.19;33.32;101539.31;4879946;29;20029;-69
2022/07/29 10:49:09;;;;;;;77.78;73.97;;;;;;;29.27;33.06;101538.38;4880561;29;20037;-69
2022/07/29 10:51:55;;;;;;;78.53;74.95;;;;;;;29.36;33.35;101546.59;4894739;29;20054;-70
2022/07/29 10:54:33;;;;;;;79.78;75.97;;;;;;;29.45;33.29;101540.88;4879811;29;20028;-69
2022/07/29 10:57:30;;;;;;;80.03;76.38;;;;;;;29.52;33.34;101539.09;4879296;29;20523;-68
2022/07/29 11:00:03;;;;;;;80.57;76.57;;;;;;;29.62;33.29;101537.81;4880170;29;20025;-70
2022/07/29 11:02:35;;;;;;;84.80;80.80;;;;;;;29.69;32.96;101538.03;4880047;29;20473;-69
2022/07/29 11:05:06;;;;;;;86.43;82.28;;;;;;;29.78;33.11;101540.66;4879623;29;20041;-70
2022/07/29 11:07:35;;;;;;;82.82;78.97;;;;;;;29.85;33.36;101537.28;4879816;29;20041;-70
2022/07/29 11:10:12;;;;;;;84.05;79.80;;;;;;;29.94;32.80;101535.16;4879712;29;20107;-70
2022/07/29 11:12:38;;;;;;;85.38;81.47;;;;;;;30.02;33.19;101538.94;4879939;29;20040;-70
2022/07/29 11:15:05;;;;;;;87.60;83.40;;;;;;;30.09;32.66;101542.72;4879770;29;20041;-70
2022/07/29 11:18:00;;;;;;;84.63;80.60;;;;;;;30.18;32.20;101542.56;4878421;29;20481;-70
2022/07/29 11:20:44;;;;;;;84.72;80.93;;;;;;;30.26;32.45;101544.38;4879889;29;20029;-68
2022/07/29 11:23:20;;;;;;;84.32;80.32;;;;;;;30.33;31.68;101541.78;4894406;29;20128;-70